createdAt,value
2019-02-06T00:01:49.009Z,2.90
2019-02-06T00:04:19.709Z,2.90
2019-02-06T00:06:49.349Z,2.90
2019-02-06T00:09:32.148Z,2.80
2019-02-06T00:12:02.026Z,2.90
2019-02-06T00:14:30.849Z,2.80
2019-02-06T00:17:07.927Z,2.90
2019-02-06T00:19:36.807Z,2.80
2019-02-06T00:22:08.184Z,2.90
2019-02-06T00:24:44.122Z,2.80
2019-02-06T00:27:19.219Z,2.80
2019-02-06T00:30:01.334Z,2.80
2019-02-06T00:32:30.136Z,2.80
2019-02-06T00:34:58.834Z,2.80
2019-02-06T00:37:34.098Z,2.80
2019-02-06T00:40:03.077Z,2.80
2019-02-06T00:42:45.824Z,2.80
2019-02-06T00:45:15.580Z,2.70
2019-02-06T00:47:44.543Z,2.80
2019-02-06T00:50:21.041Z,2.80
2019-02-06T00:52:50.768Z,2.80
2019-02-06T00:55:19.699Z,2.70
2019-02-06T00:57:55.464Z,2.70
2019-02-06T01:00:24.551Z,2.70
2019-02-06T01:02:53.923Z,2.70
2019-02-06T01:05:37.997Z,2.70
2019-02-06T01:07:59.607Z,2.70
2019-02-06T01:10:44.168Z,2.70
2019-02-06T01:13:13.732Z,2.70
2019-02-06T01:15:43.583Z,2.80
2019-02-06T01:18:20.306Z,2.80
2019-02-06T01:20:49.096Z,2.80
2019-02-06T01:23:18.033Z,2.80
2019-02-06T01:25:53.588Z,2.70
2019-02-06T01:28:28.935Z,2.70
2019-02-06T01:31:13.307Z,2.70
2019-02-06T01:33:42.858Z,2.70
2019-02-06T01:36:11.666Z,2.70
2019-02-06T01:38:48.051Z,2.70
2019-02-06T01:41:17.475Z,2.70
2019-02-06T01:43:46.251Z,2.70
2019-02-06T01:46:21.538Z,2.70
2019-02-06T01:48:51.563Z,2.70
2019-02-06T01:51:20.349Z,2.70
2019-02-06T01:53:56.474Z,2.70
2019-02-06T01:56:25.307Z,2.70
2019-02-06T01:58:54.135Z,2.70
2019-02-06T02:01:29.560Z,2.70
2019-02-06T02:03:58.450Z,2.70
2019-02-06T02:06:27.274Z,2.70
2019-02-06T02:09:06.959Z,2.60
2019-02-06T02:11:41.841Z,2.70
2019-02-06T02:14:16.910Z,2.70
2019-02-06T02:16:47.354Z,2.70
2019-02-06T02:19:16.786Z,2.70
2019-02-06T02:21:52.016Z,2.70
2019-02-06T02:24:21.915Z,2.60
2019-02-06T02:27:04.406Z,2.60
2019-02-06T02:29:42.840Z,2.60
2019-02-06T02:32:18.058Z,2.60
2019-02-06T02:34:46.936Z,2.50
2019-02-06T02:37:16.529Z,2.60
2019-02-06T02:39:52.443Z,2.50
2019-02-06T02:42:21.200Z,2.60
2019-02-06T02:44:50.214Z,2.60
2019-02-06T02:47:25.450Z,2.60
2019-02-06T02:49:54.370Z,2.50
2019-02-06T02:52:23.520Z,2.50
2019-02-06T02:54:59.231Z,2.60
2019-02-06T02:57:27.964Z,2.60
2019-02-06T02:59:56.768Z,2.50
2019-02-06T03:02:43.952Z,2.50
2019-02-06T03:05:16.354Z,2.60
2019-02-06T03:07:45.258Z,2.50
2019-02-06T03:10:21.018Z,2.50
2019-02-06T03:12:56.358Z,2.50
2019-02-06T03:15:32.407Z,2.50
2019-02-06T03:18:01.118Z,2.50
2019-02-06T03:20:30.073Z,2.50
2019-02-06T03:23:06.585Z,2.50
2019-02-06T03:25:35.317Z,2.40
2019-02-06T03:28:17.580Z,2.40
2019-02-06T03:30:53.442Z,2.40
2019-02-06T03:33:28.438Z,2.40
2019-02-06T03:35:57.474Z,2.40
2019-02-06T03:38:26.315Z,2.40
2019-02-06T03:41:02.249Z,2.40
2019-02-06T03:43:31.296Z,2.40
2019-02-06T03:46:00.165Z,2.40
2019-02-06T03:48:36.020Z,2.40
2019-02-06T03:51:05.398Z,2.40
2019-02-06T03:53:34.204Z,2.40
2019-02-06T03:56:09.581Z,2.40
2019-02-06T03:58:38.357Z,2.40
2019-02-06T04:01:07.360Z,2.40
2019-02-06T04:03:43.063Z,2.40
2019-02-06T04:06:13.031Z,2.40
2019-02-06T04:08:42.471Z,2.40
2019-02-06T04:11:18.256Z,2.40
2019-02-06T04:13:53.736Z,2.40
2019-02-06T04:16:31.054Z,2.40
2019-02-06T04:18:59.794Z,2.40
2019-02-06T04:21:28.531Z,2.40
2019-02-06T04:24:04.130Z,2.40
2019-02-06T04:26:32.932Z,2.40
2019-02-06T04:29:15.983Z,2.40
2019-02-06T04:31:51.345Z,2.30
2019-02-06T04:34:26.584Z,2.30
2019-02-06T04:37:06.293Z,2.30
2019-02-06T04:39:27.107Z,2.30
2019-02-06T04:42:04.785Z,2.30
2019-02-06T04:44:34.667Z,2.30
2019-02-06T04:47:03.882Z,2.30
2019-02-06T04:49:39.012Z,2.30
2019-02-06T04:52:09.190Z,2.20
2019-02-06T04:54:38.289Z,2.20
2019-02-06T04:57:13.431Z,2.20
2019-02-06T04:59:43.920Z,2.20
2019-02-06T05:02:12.679Z,2.20
2019-02-06T05:04:51.658Z,2.10
2019-02-06T05:07:20.393Z,2.10
2019-02-06T05:09:50.201Z,2.10
2019-02-06T05:12:25.768Z,2.00
2019-02-06T05:15:01.524Z,1.90
2019-02-06T05:17:38.172Z,1.80
2019-02-06T05:20:19.773Z,1.80
2019-02-06T05:22:55.282Z,1.70
2019-02-06T05:25:26.338Z,1.60
2019-02-06T05:28:09.031Z,1.50
2019-02-06T05:30:45.199Z,1.40
2019-02-06T05:33:21.096Z,1.40
2019-02-06T05:35:53.073Z,1.30
2019-02-06T05:38:21.918Z,1.20
2019-02-06T05:40:58.728Z,1.20
2019-02-06T05:43:27.817Z,1.20
2019-02-06T05:45:56.543Z,1.20
2019-02-06T05:48:32.165Z,1.10
2019-02-06T05:51:00.930Z,1.10
2019-02-06T05:53:31.354Z,1.00
2019-02-06T05:56:10.653Z,1.00
2019-02-06T05:58:39.435Z,0.80
2019-02-06T06:01:09.398Z,0.70
2019-02-06T06:03:45.153Z,0.70
2019-02-06T06:06:16.366Z,0.70
2019-02-06T06:08:46.699Z,0.60
2019-02-06T06:11:22.889Z,0.40
2019-02-06T06:13:52.484Z,0.40
2019-02-06T06:16:35.813Z,0.40
2019-02-06T06:19:04.722Z,0.30
2019-02-06T06:21:33.508Z,0.20
2019-02-06T06:24:09.251Z,0.20
2019-02-06T06:26:39.652Z,0.20
2019-02-06T06:29:23.435Z,0.10
2019-02-06T06:31:59.273Z,0.10
2019-02-06T06:34:34.904Z,0.20
2019-02-06T06:37:04.192Z,0.20
2019-02-06T06:39:33.085Z,0.10
2019-02-06T06:42:08.792Z,0.10
2019-02-06T06:44:40.653Z,0.00
2019-02-06T06:47:09.778Z,0.00
2019-02-06T06:49:45.442Z,-0.10
2019-02-06T06:52:14.193Z,-0.10
2019-02-06T06:54:43.194Z,-0.10
2019-02-06T06:57:19.237Z,-0.10
2019-02-06T06:59:48.300Z,-0.10
2019-02-06T07:02:17.346Z,-0.20
2019-02-06T07:04:53.134Z,-0.20
2019-02-06T07:07:22.010Z,-0.10
2019-02-06T07:09:53.147Z,0.00
2019-02-06T07:12:31.162Z,-0.10
2019-02-06T07:15:00.409Z,0.00
2019-02-06T07:17:43.201Z,0.10
2019-02-06T07:20:13.864Z,0.00
2019-02-06T07:22:42.703Z,0.10
2019-02-06T07:25:20.904Z,0.20
2019-02-06T07:27:49.896Z,0.20
2019-02-06T07:30:36.679Z,0.30
2019-02-06T07:33:12.340Z,0.40
2019-02-06T07:35:49.523Z,0.40
2019-02-06T07:38:24.488Z,0.50
2019-02-06T07:40:48.983Z,0.60
2019-02-06T07:43:24.246Z,0.60
2019-02-06T07:45:55.253Z,0.60
2019-02-06T07:48:24.181Z,0.60
2019-02-06T07:51:00.146Z,0.70
2019-02-06T07:53:28.986Z,0.80
2019-02-06T07:55:57.739Z,0.80
2019-02-06T07:58:33.373Z,0.90
2019-02-06T08:01:02.276Z,0.90
2019-02-06T08:03:31.061Z,1.00
2019-02-06T08:06:06.866Z,1.00
2019-02-06T08:08:36.443Z,1.00
2019-02-06T08:11:05.477Z,1.10
2019-02-06T08:13:41.361Z,1.20
2019-02-06T08:16:10.482Z,1.20
2019-02-06T08:18:53.478Z,1.20
2019-02-06T08:21:24.399Z,1.20
2019-02-06T08:23:53.160Z,1.20
2019-02-06T08:26:29.363Z,1.20
2019-02-06T08:28:58.221Z,1.20
2019-02-06T08:31:40.803Z,1.20
2019-02-06T08:34:16.689Z,1.40
2019-02-06T08:36:53.167Z,1.40
2019-02-06T08:39:22.309Z,1.40
2019-02-06T08:41:51.080Z,1.50
2019-02-06T08:44:26.450Z,1.50
2019-02-06T08:46:55.288Z,1.60
2019-02-06T08:49:24.348Z,1.60
2019-02-06T08:52:00.732Z,1.70
2019-02-06T08:54:30.107Z,1.70
2019-02-06T08:56:58.924Z,1.80
2019-02-06T08:59:36.231Z,1.90
2019-02-06T09:02:04.937Z,2.00
2019-02-06T09:04:34.027Z,2.00
2019-02-06T09:07:11.215Z,2.10
2019-02-06T09:09:40.134Z,2.30
2019-02-06T09:12:08.889Z,2.50
2019-02-06T09:14:44.505Z,2.40
2019-02-06T09:17:13.389Z,2.60
2019-02-06T09:19:55.568Z,2.70
2019-02-06T09:22:25.136Z,2.80
2019-02-06T09:24:54.040Z,3.00
2019-02-06T09:27:29.647Z,3.10
2019-02-06T09:30:05.873Z,3.20
2019-02-06T09:32:47.608Z,3.20
2019-02-06T09:35:16.755Z,3.40
2019-02-06T09:37:46.040Z,3.40
2019-02-06T09:40:23.843Z,3.40
2019-02-06T09:42:52.553Z,3.60
2019-02-06T09:45:21.671Z,3.70
2019-02-06T09:47:57.095Z,3.80
2019-02-06T09:50:28.992Z,3.90
2019-02-06T09:52:58.327Z,4.00
2019-02-06T09:55:34.236Z,4.20
2019-02-06T09:58:03.121Z,4.30
2019-02-06T10:00:35.491Z,4.50
2019-02-06T10:03:12.768Z,4.40
2019-02-06T10:05:42.311Z,4.60
2019-02-06T10:08:12.290Z,4.50
2019-02-06T10:10:48.477Z,4.40
2019-02-06T10:13:17.212Z,4.50
2019-02-06T10:15:47.291Z,4.60
2019-02-06T10:18:23.586Z,4.80
2019-02-06T10:20:59.357Z,5.00
2019-02-06T10:23:34.579Z,5.00
2019-02-06T10:26:04.796Z,5.20
2019-02-06T10:28:34.342Z,5.20
2019-02-06T10:31:09.710Z,5.40
2019-02-06T10:33:45.590Z,5.50
2019-02-06T10:36:20.952Z,5.40
2019-02-06T10:38:54.289Z,5.50
2019-02-06T10:41:23.181Z,5.40
2019-02-06T10:43:59.293Z,5.60
2019-02-06T10:46:30.112Z,5.60
2019-02-06T10:48:59.018Z,5.30
2019-02-06T10:51:34.089Z,5.20
2019-02-06T10:54:02.844Z,5.60
2019-02-06T10:56:32.053Z,6.10
2019-02-06T10:59:09.122Z,6.50
2019-02-06T11:01:38.699Z,6.60
2019-02-06T11:04:07.536Z,6.70
2019-02-06T11:06:43.288Z,7.00
2019-02-06T11:09:13.695Z,7.20
2019-02-06T11:11:43.180Z,7.40
2019-02-06T11:14:20.559Z,7.50
2019-02-06T11:16:49.481Z,7.40
2019-02-06T11:19:18.200Z,7.30
2019-02-06T11:22:00.320Z,7.40
2019-02-06T11:24:35.777Z,7.10
2019-02-06T11:27:11.696Z,7.50
2019-02-06T11:29:40.468Z,7.30
2019-02-06T11:32:29.390Z,7.30
2019-02-06T11:34:58.172Z,7.20
2019-02-06T11:37:27.277Z,7.20
2019-02-06T11:40:03.216Z,7.40
2019-02-06T11:42:32.080Z,7.10
2019-02-06T11:45:00.983Z,7.10
2019-02-06T11:47:36.179Z,7.00
2019-02-06T11:50:07.630Z,6.80
2019-02-06T11:52:36.359Z,6.80
2019-02-06T11:55:17.857Z,6.90
2019-02-06T11:57:46.763Z,7.10
2019-02-06T12:00:29.021Z,7.10
2019-02-06T12:02:57.869Z,7.40
2019-02-06T12:05:26.759Z,7.30
2019-02-06T12:08:02.804Z,7.30
2019-02-06T12:10:31.607Z,7.30
2019-02-06T12:13:00.568Z,7.60
2019-02-06T12:15:37.739Z,7.60
2019-02-06T12:18:07.231Z,7.90
2019-02-06T12:20:36.197Z,8.00
2019-02-06T12:23:18.492Z,7.90
2019-02-06T12:25:48.537Z,7.60
2019-02-06T12:28:18.330Z,7.60
2019-02-06T12:30:56.154Z,7.80
2019-02-06T12:33:31.332Z,7.40
2019-02-06T12:36:15.895Z,7.40
2019-02-06T12:38:53.151Z,7.50
2019-02-06T12:41:15.415Z,7.40
2019-02-06T12:43:50.672Z,7.30
2019-02-06T12:46:19.601Z,7.20
2019-02-06T12:48:48.588Z,7.00
2019-02-06T12:51:24.325Z,6.90
2019-02-06T12:53:53.405Z,6.80
2019-02-06T12:56:22.249Z,6.90
2019-02-06T12:58:57.154Z,6.70
2019-02-06T13:01:27.857Z,6.80
2019-02-06T13:03:56.729Z,6.60
2019-02-06T13:06:31.937Z,6.80
2019-02-06T13:09:00.752Z,6.80
2019-02-06T13:11:31.476Z,6.70
2019-02-06T13:14:06.735Z,6.80
2019-02-06T13:16:35.519Z,6.80
2019-02-06T13:19:04.648Z,6.70
2019-02-06T13:21:40.227Z,6.70
2019-02-06T13:24:15.977Z,6.70
2019-02-06T13:26:51.426Z,6.60
2019-02-06T13:29:20.618Z,6.60
2019-02-06T13:32:02.450Z,6.60
2019-02-06T13:34:38.097Z,6.50
2019-02-06T13:37:13.835Z,6.40
2019-02-06T13:39:44.235Z,6.40
2019-02-06T13:42:12.950Z,6.50
2019-02-06T13:44:48.641Z,6.40
2019-02-06T13:47:17.778Z,6.30
2019-02-06T13:49:47.065Z,6.30
2019-02-06T13:52:22.753Z,6.30
2019-02-06T13:54:51.729Z,6.40
2019-02-06T13:57:20.573Z,6.30
2019-02-06T13:59:56.301Z,6.30
2019-02-06T14:02:26.273Z,6.30
2019-02-06T14:04:55.993Z,6.30
2019-02-06T14:07:32.065Z,6.20
2019-02-06T14:10:00.842Z,6.20
2019-02-06T14:12:30.661Z,6.10
2019-02-06T14:15:06.510Z,6.10
2019-02-06T14:17:35.454Z,6.10
2019-02-06T14:20:07.223Z,6.00
2019-02-06T14:22:43.064Z,6.00
2019-02-06T14:25:25.408Z,5.90
2019-02-06T14:28:16.234Z,5.90
2019-02-06T14:31:08.763Z,5.80
2019-02-06T14:34:12.941Z,5.70
2019-02-06T14:37:08.830Z,5.60
2019-02-06T14:40:09.613Z,5.50
2019-02-06T14:43:12.305Z,5.40
2019-02-06T14:46:24.016Z,5.30
2019-02-06T14:49:02.807Z,5.20
2019-02-06T14:52:10.673Z,5.10
2019-02-06T14:54:49.940Z,5.10
2019-02-06T14:58:14.352Z,5.00
2019-02-06T15:01:08.736Z,4.90
2019-02-06T15:04:01.483Z,4.80
2019-02-06T15:06:42.664Z,4.80
2019-02-06T15:09:44.926Z,4.70
2019-02-06T15:12:55.280Z,4.70
2019-02-06T15:15:57.458Z,4.60
2019-02-06T15:18:56.836Z,4.50
2019-02-06T15:21:57.140Z,4.40
2019-02-06T15:24:48.880Z,4.40
2019-02-06T15:28:06.107Z,4.40
2019-02-06T15:31:20.389Z,4.30
2019-02-06T15:34:45.445Z,4.30
2019-02-06T15:37:48.914Z,4.20
2019-02-06T15:40:38.006Z,4.10
2019-02-06T15:43:16.363Z,4.00
2019-02-06T15:46:07.947Z,4.00
2019-02-06T15:48:49.359Z,3.90
2019-02-06T15:52:33.391Z,3.90
2019-02-06T15:55:35.175Z,3.80
2019-02-06T15:58:57.736Z,3.70
2019-02-06T16:02:09.467Z,3.70
2019-02-06T16:05:26.980Z,3.60
2019-02-06T16:08:14.733Z,3.50
2019-02-06T16:11:46.518Z,3.60
2019-02-06T16:15:09.603Z,3.50
2019-02-06T16:18:32.249Z,3.40
2019-02-06T16:21:52.813Z,3.30
2019-02-06T16:24:58.541Z,3.30
2019-02-06T16:28:05.568Z,3.30
2019-02-06T16:31:44.264Z,3.20
2019-02-06T16:34:58.944Z,3.20
2019-02-06T16:38:18.963Z,3.20
2019-02-06T16:41:10.105Z,3.30
2019-02-06T16:44:32.799Z,3.20
2019-02-06T16:47:45.755Z,3.20
2019-02-06T16:50:50.307Z,3.20
2019-02-06T16:53:33.707Z,3.20
2019-02-06T16:56:29.824Z,3.10
2019-02-06T16:59:27.888Z,3.10
2019-02-06T17:02:35.684Z,3.10
2019-02-06T17:05:37.284Z,3.10
2019-02-06T17:08:41.654Z,3.10
2019-02-06T17:12:04.370Z,3.10
2019-02-06T17:15:14.283Z,3.10
2019-02-06T17:17:51.489Z,3.00
2019-02-06T17:21:12.856Z,3.00
2019-02-06T17:23:52.792Z,3.10
2019-02-06T17:26:56.286Z,3.00
2019-02-06T17:29:44.782Z,2.90
2019-02-06T17:33:08.629Z,3.00
2019-02-06T17:36:15.520Z,2.90
2019-02-06T17:39:32.789Z,2.90
2019-02-06T17:42:16.002Z,3.00
2019-02-06T17:45:39.499Z,2.90
2019-02-06T17:48:44.578Z,3.00
2019-02-06T17:52:06.384Z,2.90
2019-02-06T17:54:55.928Z,3.00
2019-02-06T17:57:31.883Z,2.90
2019-02-06T18:00:01.261Z,2.90
2019-02-06T18:02:30.089Z,2.90
2019-02-06T18:05:05.638Z,2.80
2019-02-06T18:07:36.013Z,2.90
2019-02-06T18:10:14.653Z,2.90
2019-02-06T18:12:43.878Z,2.90
2019-02-06T18:15:12.707Z,2.90
2019-02-06T18:17:50.114Z,2.90
2019-02-06T18:20:19.035Z,2.90
2019-02-06T18:22:48.772Z,2.90
2019-02-06T18:25:24.840Z,2.90
2019-02-06T18:27:55.041Z,2.90
2019-02-06T18:30:25.114Z,3.00
2019-02-06T18:33:09.025Z,3.00
2019-02-06T18:35:45.248Z,3.00
2019-02-06T18:38:27.777Z,2.90
2019-02-06T18:40:56.714Z,2.90
2019-02-06T18:43:25.531Z,2.90
2019-02-06T18:46:03.692Z,2.90
2019-02-06T18:48:33.950Z,3.00
2019-02-06T18:51:02.896Z,3.00
2019-02-06T18:53:38.767Z,3.00
2019-02-06T18:56:07.790Z,3.00
2019-02-06T18:58:39.208Z,3.00
2019-02-06T19:01:15.680Z,3.00
2019-02-06T19:03:46.310Z,3.00
2019-02-06T19:06:18.802Z,3.00
2019-02-06T19:08:55.379Z,3.00
2019-02-06T19:11:25.445Z,3.00
2019-02-06T19:13:54.388Z,3.00
2019-02-06T19:16:30.195Z,3.00
2019-02-06T19:18:59.234Z,3.00
2019-02-06T19:21:28.060Z,2.90
2019-02-06T19:24:03.146Z,2.90
2019-02-06T19:26:36.011Z,2.90
2019-02-06T19:29:13.990Z,2.90
2019-02-06T19:31:43.193Z,2.90
2019-02-06T19:34:25.423Z,2.90
2019-02-06T19:37:00.615Z,2.80
2019-02-06T19:39:44.615Z,2.80
2019-02-06T19:42:13.815Z,2.80
2019-02-06T19:44:42.962Z,2.80
2019-02-06T19:47:21.235Z,2.80
2019-02-06T19:49:52.384Z,2.80
2019-02-06T19:52:21.339Z,2.80
2019-02-06T19:54:57.688Z,2.70
2019-02-06T19:57:26.524Z,2.70
2019-02-06T19:59:56.657Z,2.70
2019-02-06T20:02:31.941Z,2.70
2019-02-06T20:05:00.830Z,2.60
2019-02-06T20:07:29.641Z,2.60
2019-02-06T20:10:05.876Z,2.70
2019-02-06T20:12:34.661Z,2.70
2019-02-06T20:15:06.172Z,2.60
2019-02-06T20:17:41.241Z,2.60
2019-02-06T20:20:12.115Z,2.60
2019-02-06T20:22:41.056Z,2.60
2019-02-06T20:25:16.775Z,2.50
2019-02-06T20:27:45.694Z,2.40
2019-02-06T20:30:26.631Z,2.40
2019-02-06T20:32:56.299Z,2.30
2019-02-06T20:35:45.450Z,2.40
2019-02-06T20:38:21.281Z,2.30
2019-02-06T20:40:57.728Z,2.20
2019-02-06T20:43:29.057Z,2.20
2019-02-06T20:45:58.082Z,2.20
2019-02-06T20:48:33.433Z,2.20
2019-02-06T20:51:02.224Z,2.20
2019-02-06T20:53:31.792Z,2.20
2019-02-06T20:56:07.509Z,2.10
2019-02-06T20:58:38.643Z,2.10
2019-02-06T21:01:08.316Z,2.10
2019-02-06T21:03:43.483Z,2.00
2019-02-06T21:06:12.645Z,2.00
2019-02-06T21:08:41.428Z,1.90
2019-02-06T21:11:16.869Z,1.90
2019-02-06T21:13:46.078Z,1.80
2019-02-06T21:16:15.051Z,1.80
2019-02-06T21:18:52.047Z,1.70
2019-02-06T21:21:20.954Z,1.70
2019-02-06T21:23:49.708Z,1.70
2019-02-06T21:26:44.579Z,1.70
2019-02-06T21:29:20.067Z,1.70
2019-02-06T21:31:55.669Z,1.70
2019-02-06T21:34:24.495Z,1.70
2019-02-06T21:37:08.656Z,1.70
2019-02-06T21:39:37.463Z,1.70
2019-02-06T21:42:06.230Z,1.70
2019-02-06T21:44:41.963Z,1.70
2019-02-06T21:47:11.166Z,1.70
2019-02-06T21:49:40.332Z,1.60
2019-02-06T21:52:16.048Z,1.60
2019-02-06T21:54:47.053Z,1.60
2019-02-06T21:57:17.915Z,1.60
2019-02-06T21:59:54.138Z,1.60
2019-02-06T22:02:22.984Z,1.70
2019-02-06T22:04:51.756Z,1.60
2019-02-06T22:07:34.279Z,1.70
2019-02-06T22:10:04.228Z,1.70
2019-02-06T22:12:33.115Z,1.60
2019-02-06T22:15:10.779Z,1.70
2019-02-06T22:17:40.021Z,1.70
2019-02-06T22:20:10.386Z,1.70
2019-02-06T22:22:45.883Z,1.70
2019-02-06T22:25:15.140Z,1.70
2019-02-06T22:28:04.040Z,1.60
2019-02-06T22:30:33.082Z,1.60
2019-02-06T22:33:02.966Z,1.60
2019-02-06T22:35:38.850Z,1.60
2019-02-06T22:38:16.569Z,1.60
2019-02-06T22:40:52.657Z,1.50
2019-02-06T22:43:22.402Z,1.50
2019-02-06T22:45:51.234Z,1.60
2019-02-06T22:48:27.942Z,1.60
2019-02-06T22:50:57.514Z,1.60
2019-02-06T22:53:26.376Z,1.60
2019-02-06T22:56:01.479Z,1.60
2019-02-06T22:58:31.400Z,1.50
2019-02-06T23:01:24.710Z,1.50
2019-02-06T23:03:54.092Z,1.50
2019-02-06T23:06:23.475Z,1.50
2019-02-06T23:08:59.554Z,1.60
2019-02-06T23:11:28.567Z,1.60
2019-02-06T23:13:58.156Z,1.60
2019-02-06T23:16:33.919Z,1.70
2019-02-06T23:19:04.823Z,1.70
2019-02-06T23:21:33.775Z,1.70
2019-02-06T23:24:09.785Z,1.70
2019-02-06T23:26:40.115Z,1.70
2019-02-06T23:29:21.498Z,1.70
2019-02-06T23:31:57.054Z,1.70
2019-02-06T23:34:33.665Z,1.70
2019-02-06T23:37:02.507Z,1.80
2019-02-06T23:39:44.836Z,1.80
2019-02-06T23:42:15.055Z,1.80
2019-02-06T23:44:45.036Z,1.80
2019-02-06T23:47:19.999Z,1.80
2019-02-06T23:49:48.894Z,1.80
2019-02-06T23:52:18.125Z,1.90
2019-02-06T23:54:53.638Z,1.90
2019-02-06T23:57:22.373Z,1.90
2019-02-06T23:59:52.531Z,1.90
